Time;durP1;ratioP1;P1;durP2;ratioP2;P2;SDS_P1;SDS_P2;PMS_P1;PMS_P2;Temp;Humidity;BMP_temperature;BMP_pressure;BME280_temperature;BME280_humidity;BME280_pressure;Samples;Min_cycle;Max_cycle;Signal;HPM_P1;HPM_P2
2022/11/26 00:02:16;;;;;;;20.92;12.95;;;;;;;10.00;73.64;101209.28;5155327;27;20475;-60
2022/11/26 00:04:49;;;;;;;24.58;12.13;;;;;;;10.02;73.33;101212.59;5155405;27;20124;-61
2022/11/26 00:07:21;;;;;;;18.10;10.75;;;;;;;10.05;73.15;101201.69;5152397;27;20042;-60
2022/11/26 00:09:51;;;;;;;23.88;13.05;;;;;;;9.96;73.96;101220.16;5155900;27;20047;-60
2022/11/26 00:12:43;;;;;;;26.00;13.10;;;;;;;9.95;72.96;101216.56;5155013;27;20055;-60
2022/11/26 00:15:21;;;;;;;28.90;14.35;;;;;;;9.92;73.10;101219.09;5149120;27;20062;-60
2022/11/26 00:17:59;;;;;;;27.70;14.10;;;;;;;9.89;73.80;101222.44;5152901;27;20043;-59
2022/11/26 00:20:31;;;;;;;32.83;15.80;;;;;;;9.71;73.75;101227.59;5154894;27;20054;-60
2022/11/26 00:23:03;;;;;;;27.77;14.82;;;;;;;9.68;74.32;101222.63;5154129;27;20069;-60
2022/11/26 00:25:42;;;;;;;29.45;15.20;;;;;;;9.60;75.14;101226.03;5117661;27;20410;-60
2022/11/26 00:28:39;;;;;;;26.23;15.60;;;;;;;9.53;75.27;101226.34;5132854;27;20052;-60
2022/11/26 00:31:17;;;;;;;28.00;15.57;;;;;;;9.34;75.97;101231.75;5148939;27;20051;-60
2022/11/26 00:33:48;;;;;;;26.33;15.25;;;;;;;9.38;76.48;101236.72;5153869;27;20065;-60
2022/11/26 00:36:27;;;;;;;27.00;15.15;;;;;;;9.32;75.77;101235.91;5138730;27;20051;-60
2022/11/26 00:38:57;;;;;;;29.52;16.33;;;;;;;9.39;76.44;101235.63;5134142;27;20058;-60
2022/11/26 00:41:31;;;;;;;31.05;16.17;;;;;;;9.41;76.33;101236.13;5133871;27;20051;-60
2022/11/26 00:43:59;;;;;;;32.80;16.80;;;;;;;9.24;76.66;101244.84;5142463;27;20642;-60
2022/11/26 00:46:30;;;;;;;38.45;16.50;;;;;;;9.30;77.16;101244.56;5153508;27;20050;-59
2022/11/26 00:48:58;;;;;;;22.13;13.80;;;;;;;9.32;76.82;101247.91;5154499;27;20051;-60
2022/11/26 00:51:29;;;;;;;23.73;14.73;;;;;;;9.37;75.96;101255.38;5139273;27;20059;-60
2022/11/26 00:54:03;;;;;;;27.30;14.52;;;;;;;9.33;75.51;101252.31;5122540;27;20059;-60
2022/11/26 00:56:39;;;;;;;24.17;15.32;;;;;;;9.32;76.05;101267.34;5122486;27;20070;-60
2022/11/26 00:59:13;;;;;;;29.23;15.70;;;;;;;9.32;76.31;101258.16;5116581;27;20047;-60
2022/11/26 01:01:47;;;;;;;28.75;15.55;;;;;;;9.31;75.76;101267.63;5144857;27;20058;-60
2022/11/26 01:04:19;;;;;;;31.80;15.55;;;;;;;9.15;77.07;101264.09;5131002;27;20487;-60
2022/11/26 01:06:48;;;;;;;29.25;14.90;;;;;;;9.24;75.98;101278.22;5133925;27;20479;-62
2022/11/26 01:09:26;;;;;;;26.63;14.18;;;;;;;9.24;77.01;101279.06;5112824;28;20058;-60
2022/11/26 01:12:01;;;;;;;28.92;16.63;;;;;;;9.31;75.67;101282.38;5112653;28;20048;-60
2022/11/26 01:14:59;;;;;;;24.38;14.13;;;;;;;9.30;75.96;101286.28;5128896;27;20086;-60
2022/11/26 01:17:39;;;;;;;27.02;15.15;;;;;;;9.30;76.69;101289.06;5117319;27;20047;-60
2022/11/26 01:20:24;;;;;;;34.78;17.13;;;;;;;9.33;76.49;101294.03;5113108;28;20058;-60
2022/11/26 01:22:58;;;;;;;24.27;14.32;;;;;;;9.28;75.49;101299.63;5120522;27;20518;-60
2022/11/26 01:25:32;;;;;;;31.45;15.90;;;;;;;9.06;77.41;101304.72;5112932;28;20503;-59
2022/11/26 01:28:03;;;;;;;30.25;16.42;;;;;;;9.10;77.65;101297.47;5129671;27;20499;-60
2022/11/26 01:30:36;;;;;;;29.63;14.30;;;;;;;9.20;76.45;101297.44;5133347;27;20116;-60
2022/11/26 01:33:06;;;;;;;25.67;14.50;;;;;;;9.18;75.46;101301.63;5136858;27;20513;-60
2022/11/26 01:35:51;;;;;;;32.30;15.10;;;;;;;9.14;76.44;101304.13;5136453;27;20043;-60
2022/11/26 01:38:25;;;;;;;27.85;15.70;;;;;;;9.09;77.15;101305.00;5128147;27;20058;-60
2022/11/26 01:41:11;;;;;;;26.35;15.35;;;;;;;9.09;77.09;101310.56;5124664;27;20043;-60
2022/11/26 01:43:43;;;;;;;30.13;14.63;;;;;;;9.12;76.74;101314.69;5114194;27;20055;-60
2022/11/26 01:46:15;;;;;;;28.52;14.30;;;;;;;9.10;77.26;101316.94;5112623;28;20494;-60
2022/11/26 01:48:44;;;;;;;26.55;14.43;;;;;;;9.16;75.46;101318.59;5112255;28;20051;-59
2022/11/26 01:51:15;;;;;;;22.88;13.50;;;;;;;9.08;76.86;101330.28;5114501;28;20051;-61
2022/11/26 01:53:50;;;;;;;25.05;13.48;;;;;;;9.11;76.09;101326.91;5112201;28;20496;-60
2022/11/26 01:56:31;;;;;;;22.52;13.13;;;;;;;9.16;75.46;101331.66;5122472;27;20502;-61
2022/11/26 01:59:06;;;;;;;24.05;14.38;;;;;;;9.09;75.62;101337.50;5112388;28;20048;-60
2022/11/26 02:01:37;;;;;;;27.88;14.70;;;;;;;9.09;76.33;101343.03;5125250;28;20423;-61
2022/11/26 02:04:16;;;;;;;26.88;15.25;;;;;;;9.12;76.54;101331.38;5111564;28;20063;-61
2022/11/26 02:06:47;;;;;;;33.17;14.63;;;;;;;9.18;76.77;101324.69;5130964;28;20446;-60
2022/11/26 02:09:28;;;;;;;29.48;14.93;;;;;;;9.16;75.74;101321.34;5130199;28;20054;-60
2022/11/26 02:11:56;;;;;;;28.45;14.07;;;;;;;9.13;76.16;101331.09;5136928;27;20047;-60
2022/11/26 02:14:35;;;;;;;33.60;14.88;;;;;;;9.05;75.59;101331.69;5134107;27;20058;-59
2022/11/26 02:17:15;;;;;;;27.52;14.82;;;;;;;9.00;75.59;101328.91;5131647;27;20055;-61
2022/11/26 02:20:17;;;;;;;30.98;14.90;;;;;;;9.04;75.83;101335.56;5140883;27;20062;-60
2022/11/26 02:23:24;;;;;;;32.70;16.25;;;;;;;9.03;76.38;101342.25;5112218;28;20059;-60
2022/11/26 02:26:20;;;;;;;25.85;14.48;;;;;;;9.04;76.18;101331.97;5106103;27;20039;-60
2022/11/26 02:29:03;;;;;;;36.28;15.23;;;;;;;9.01;76.45;101343.63;5136927;27;20047;-60
2022/11/26 02:31:44;;;;;;;28.65;14.70;;;;;;;8.94;77.09;101342.00;5124461;28;20047;-59
2022/11/26 02:34:22;;;;;;;25.13;13.98;;;;;;;9.06;76.58;101349.19;5129779;28;20043;-59
2022/11/26 02:36:57;;;;;;;28.20;15.30;;;;;;;9.05;76.38;101344.72;5132005;28;20047;-60
2022/11/26 02:39:28;;;;;;;30.48;14.30;;;;;;;9.01;75.81;101340.84;5112129;28;20051;-60
2022/11/26 02:41:57;;;;;;;23.63;13.27;;;;;;;9.06;76.25;101338.88;5137064;27;20046;-61
2022/11/26 02:44:41;;;;;;;29.40;14.95;;;;;;;9.06;75.03;101330.56;5114190;28;20106;-60
2022/11/26 02:47:19;;;;;;;25.63;14.55;;;;;;;9.07;75.35;101335.00;5129841;28;20054;-61
2022/11/26 02:49:57;;;;;;;27.58;14.25;;;;;;;9.03;74.46;101331.13;5130891;27;20468;-60
2022/11/26 02:52:27;;;;;;;24.33;12.57;;;;;;;8.99;74.85;101343.06;5115546;28;20051;-60
2022/11/26 02:54:57;;;;;;;24.58;13.00;;;;;;;8.96;75.13;101338.09;5118533;27;20051;-60
2022/11/26 02:57:30;;;;;;;;;;;;;;;8.93;75.17;101339.50;5148367;27;20058;-61
2022/11/26 03:00:00;;;;;;;22.75;12.45;;;;;;;8.91;75.17;101341.72;5115042;27;19919;-61
2022/11/26 03:02:38;;;;;;;21.40;12.23;;;;;;;8.84;73.58;101339.25;5117166;27;20059;-60
2022/11/26 03:05:08;;;;;;;25.85;13.38;;;;;;;8.76;73.59;101345.38;5136074;27;20055;-60
2022/11/26 03:07:37;;;;;;;19.50;11.75;;;;;;;8.73;74.36;101344.00;5156518;27;20054;-60
2022/11/26 03:10:06;;;;;;;22.55;12.25;;;;;;;8.71;74.04;101334.25;5143131;27;20051;-60
2022/11/26 03:12:34;;;;;;;23.53;11.33;;;;;;;8.67;73.06;101330.38;5136837;27;20491;-60
2022/11/26 03:15:16;;;;;;;30.02;13.25;;;;;;;8.61;72.48;101325.94;5145602;27;20542;-60
2022/11/26 03:17:48;;;;;;;21.48;12.40;;;;;;;8.50;72.47;101330.69;5135076;27;20047;-60
2022/11/26 03:20:20;;;;;;;20.13;11.43;;;;;;;8.37;73.90;101337.59;5115928;27;20043;-60
2022/11/26 03:22:51;;;;;;;25.10;12.05;;;;;;;8.42;72.58;101329.31;5115395;28;20073;-60
2022/11/26 03:25:21;;;;;;;21.98;11.23;;;;;;;8.41;73.09;101326.81;5137214;27;20049;-60
2022/11/26 03:27:49;;;;;;;20.52;12.48;;;;;;;8.25;72.51;101325.94;5153368;27;20054;-60
2022/11/26 03:30:23;;;;;;;22.75;11.35;;;;;;;8.11;73.97;101323.72;5118479;27;20414;-60
2022/11/26 03:33:01;;;;;;;21.77;11.05;;;;;;;8.01;73.47;101332.03;5130007;27;20070;-61
2022/11/26 03:38:57;;;;;;;17.63;10.52;;;;;;;7.89;72.63;101337.84;5072242;28;20055;-60
2022/11/26 03:41:41;;;;;;;19.15;11.10;;;;;;;7.84;73.31;101328.69;5128602;27;20055;-61
2022/11/26 03:47:05;;;;;;;24.52;11.63;;;;;;;7.82;73.25;101328.16;5109717;27;20050;-60
2022/11/26 03:52:18;;;;;;;23.90;11.93;;;;;;;7.76;73.45;101340.34;5108603;27;20062;-60
2022/11/26 03:55:08;;;;;;;23.13;12.18;;;;;;;7.68;73.80;101341.69;5131905;27;20051;-59
2022/11/26 03:57:38;;;;;;;26.35;12.18;;;;;;;7.66;74.56;101339.19;5134725;27;20065;-60
2022/11/26 04:00:17;;;;;;;21.92;11.73;;;;;;;7.71;73.83;101346.72;5133467;27;20063;-60
2022/11/26 04:02:47;;;;;;;21.17;12.60;;;;;;;7.74;75.42;101351.69;5121140;27;20047;-60
2022/11/26 04:05:19;;;;;;;;;;;;;;;7.64;76.09;101358.06;5124727;27;20047;-60
2022/11/26 04:07:47;;;;;;;19.80;11.13;;;;;;;7.65;74.84;101362.50;5133262;27;19919;-60
2022/11/26 04:10:19;;;;;;;21.50;11.90;;;;;;;7.65;74.67;101365.25;5129370;27;20048;-60
2022/11/26 04:12:46;;;;;;;19.30;10.35;;;;;;;7.63;75.40;101366.66;5128447;27;20051;-61
2022/11/26 04:15:17;;;;;;;21.45;11.25;;;;;;;7.59;74.69;101385.75;5113365;27;20056;-60
2022/11/26 04:18:08;;;;;;;21.17;11.63;;;;;;;7.59;74.09;101379.38;5113787;27;20499;-60
2022/11/26 04:20:42;;;;;;;21.67;11.02;;;;;;;7.53;73.23;101378.53;5113391;28;20052;-59
2022/11/26 04:23:19;;;;;;;21.40;11.07;;;;;;;7.54;74.25;101385.75;5116343;27;20055;-59
2022/11/26 04:26:15;;;;;;;19.50;9.93;;;;;;;7.49;74.74;101388.50;5139936;27;20043;-60
2022/11/26 04:31:33;;;;;;;18.92;9.40;;;;;;;7.31;73.45;101409.22;5113833;27;20059;-61
2022/11/26 04:36:51;;;;;;;20.05;10.32;;;;;;;7.26;73.62;101420.25;5108374;28;20133;-61
2022/11/26 04:42:09;;;;;;;17.65;10.15;;;;;;;7.17;73.47;101428.25;5102496;27;20043;-59
2022/11/26 04:44:40;;;;;;;21.33;9.73;;;;;;;7.20;74.07;101432.41;5132054;27;20397;-60
2022/11/26 04:47:08;;;;;;;19.02;10.20;;;;;;;7.11;74.05;101432.09;5120095;27;20062;-59
2022/11/26 04:49:43;;;;;;;23.17;12.02;;;;;;;7.14;74.24;101441.78;5131229;27;20043;-60
2022/11/26 04:52:52;;;;;;;27.55;13.63;;;;;;;7.12;74.45;101447.63;5133856;27;20058;-59
2022/11/26 04:55:50;;;;;;;22.65;12.40;;;;;;;7.11;74.30;101448.72;5147003;27;20053;-60
2022/11/26 04:58:24;;;;;;;18.88;11.52;;;;;;;7.09;74.42;101457.28;5135677;27;20091;-60
2022/11/26 05:00:52;;;;;;;19.77;10.88;;;;;;;7.12;74.61;101444.84;5110103;28;20048;-60
2022/11/26 05:03:35;;;;;;;24.65;12.15;;;;;;;7.13;74.97;101452.03;5116512;27;20043;-60
2022/11/26 05:06:11;;;;;;;26.17;13.30;;;;;;;7.10;74.45;101461.72;5117833;27;20047;-59
2022/11/26 05:08:43;;;;;;;24.58;13.55;;;;;;;7.13;75.24;101456.75;5125522;27;20050;-60
2022/11/26 05:11:20;;;;;;;19.35;12.18;;;;;;;7.14;74.97;101458.41;5120923;27;20392;-59
2022/11/26 05:13:47;;;;;;;23.10;11.82;;;;;;;7.17;75.53;101472.56;5107613;28;20404;-60
2022/11/26 05:16:15;;;;;;;21.40;12.43;;;;;;;7.18;74.87;101474.25;5112373;28;20062;-60
2022/11/26 05:18:51;;;;;;;26.15;13.10;;;;;;;7.21;73.87;101465.41;5113601;27;20062;-59
2022/11/26 05:21:20;;;;;;;24.20;12.15;;;;;;;7.16;74.72;101478.38;5113221;28;20043;-59
2022/11/26 05:23:58;;;;;;;27.23;12.32;;;;;;;7.13;74.96;101478.94;5121340;27;20047;-60
2022/11/26 05:26:26;;;;;;;21.08;13.43;;;;;;;7.09;74.94;101476.66;5131932;27;20503;-59
2022/11/26 05:28:57;;;;;;;24.48;13.07;;;;;;;7.12;74.19;101475.31;5129525;27;20050;-60
2022/11/26 05:31:30;;;;;;;25.38;12.50;;;;;;;7.12;75.08;101475.31;5116556;27;20043;-60
2022/11/26 05:34:01;;;;;;;21.75;12.75;;;;;;;7.09;74.06;101479.44;5124593;27;20055;-60
2022/11/26 05:36:30;;;;;;;22.88;12.75;;;;;;;7.04;73.94;101481.34;5094093;28;20051;-60
2022/11/26 05:39:00;;;;;;;20.25;11.63;;;;;;;7.06;74.68;101493.00;5131794;27;20051;-59
2022/11/26 05:41:27;;;;;;;;;;;;;;;7.06;73.71;101488.31;5123210;27;20051;-59
2022/11/26 05:43:55;;;;;;;28.17;14.82;;;;;;;7.02;74.39;101483.56;5124403;27;19938;-60
2022/11/26 05:46:23;;;;;;;27.30;15.77;;;;;;;7.06;74.51;101476.38;5138694;27;20054;-62
2022/11/26 05:48:55;;;;;;;24.42;13.00;;;;;;;7.04;74.71;101484.97;5153516;27;20054;-59
2022/11/26 05:51:23;;;;;;;26.52;13.30;;;;;;;7.03;75.70;101485.22;5127401;28;20054;-64
2022/11/26 05:53:56;;;;;;;21.15;13.13;;;;;;;7.03;75.21;101493.53;5129369;27;20415;-60
2022/11/26 05:56:28;;;;;;;28.65;15.15;;;;;;;6.98;75.89;101488.78;5153521;27;20050;-60
2022/11/26 05:58:55;;;;;;;21.75;14.35;;;;;;;7.00;74.79;101503.22;5140765;27;20058;-60
2022/11/26 06:01:29;;;;;;;24.38;12.93;;;;;;;7.01;75.63;101504.88;5132684;28;20050;-60
2022/11/26 06:04:03;;;;;;;29.88;14.80;;;;;;;7.02;75.38;101511.25;5131465;28;20066;-59
2022/11/26 06:06:31;;;;;;;26.25;13.32;;;;;;;7.01;74.87;101501.25;5112486;28;20051;-64
2022/11/26 06:08:59;;;;;;;25.23;14.23;;;;;;;7.03;76.02;101499.06;5128266;27;20039;-60
2022/11/26 06:11:36;;;;;;;29.35;14.48;;;;;;;7.03;76.07;101513.75;5143454;27;20443;-59
2022/11/26 06:16:52;;;;;;;25.25;14.10;;;;;;;7.08;76.57;101508.25;5112691;28;20907;-59
2022/11/26 06:22:29;;;;;;;25.48;13.98;;;;;;;7.15;77.33;101508.03;5072675;28;20080;-60
2022/11/26 06:34:20;;;;;;;34.28;15.73;;;;;;;7.28;78.34;101528.91;5051993;27;20058;-59
2022/11/26 06:36:48;;;;;;;28.40;16.17;;;;;;;7.35;77.86;101543.38;5136345;27;20415;-60
2022/11/26 06:39:19;;;;;;;32.15;14.60;;;;;;;7.38;77.83;101537.28;5135669;27;20549;-59
2022/11/26 06:41:50;;;;;;;31.67;14.88;;;;;;;7.46;78.19;101541.50;5135079;27;20051;-60
2022/11/26 06:44:20;;;;;;;27.17;14.68;;;;;;;7.53;78.02;101542.09;5132390;27;20043;-59
2022/11/26 06:47:15;;;;;;;27.42;14.55;;;;;;;7.60;78.48;101544.63;5136140;27;20047;-60
2022/11/26 06:52:38;;;;;;;25.92;14.60;;;;;;;7.69;78.50;101543.03;5105948;27;20073;-59
2022/11/26 06:55:06;;;;;;;23.92;14.00;;;;;;;7.73;77.14;101547.78;5115405;28;20047;-60
2022/11/26 07:01:19;;;;;;;27.75;14.25;;;;;;;7.73;77.27;101549.72;5064599;27;20054;-60
2022/11/26 07:04:09;;;;;;;29.17;14.43;;;;;;;7.78;76.06;101546.13;5127201;27;20051;-59
2022/11/26 07:06:39;;;;;;;31.17;15.20;;;;;;;7.79;76.74;101545.00;5125036;27;20058;-60
2022/11/26 07:09:13;;;;;;;;;;;;;;;7.77;76.39;101544.44;5121241;27;20055;-59
2022/11/26 07:12:00;;;;;;;31.58;16.33;;;;;;;7.78;77.23;101546.13;5129407;27;19919;-59
2022/11/26 07:14:28;;;;;;;30.17;15.18;;;;;;;7.77;76.16;101544.44;5148967;27;20055;-59
2022/11/26 07:17:07;;;;;;;27.52;14.55;;;;;;;7.82;76.98;101547.25;5133325;27;20442;-60
2022/11/26 07:19:39;;;;;;;30.17;15.00;;;;;;;7.86;76.77;101551.16;5120646;27;20047;-61
2022/11/26 07:22:07;;;;;;;34.15;17.13;;;;;;;7.83;75.23;101560.00;5145726;27;20050;-59
2022/11/26 07:24:40;;;;;;;30.20;14.75;;;;;;;7.90;76.08;101564.22;5134854;27;20606;-59
2022/11/26 07:27:11;;;;;;;29.15;14.50;;;;;;;7.89;75.05;101553.38;5133668;27;20043;-59
2022/11/26 07:29:42;;;;;;;33.42;17.73;;;;;;;7.91;74.21;101565.88;5135481;27;20054;-59
2022/11/26 07:32:12;;;;;;;23.42;13.60;;;;;;;8.11;75.29;101567.09;5115479;27;20047;-59
2022/11/26 07:34:41;;;;;;;28.70;12.73;;;;;;;8.25;74.54;101561.84;5122948;27;20050;-59
2022/11/26 07:37:13;;;;;;;20.87;12.53;;;;;;;8.36;74.68;101562.72;5154319;27;20060;-59
2022/11/26 07:39:40;;;;;;;28.70;14.13;;;;;;;8.36;73.50;101563.59;5140931;27;20408;-60
2022/11/26 07:42:12;;;;;;;25.42;14.25;;;;;;;8.49;74.54;101565.88;5134844;27;20043;-60
2022/11/26 07:44:45;;;;;;;21.35;12.50;;;;;;;8.71;73.58;101567.56;5119159;27;20051;-59
2022/11/26 07:47:17;;;;;;;22.55;12.15;;;;;;;8.75;72.28;101563.13;5126646;27;20490;-60
2022/11/26 07:49:49;;;;;;;24.90;12.93;;;;;;;8.82;72.98;101560.09;5129030;27;20492;-60
2022/11/26 07:52:28;;;;;;;21.63;12.38;;;;;;;8.86;72.70;101556.50;5123383;27;20048;-60
2022/11/26 07:54:55;;;;;;;24.98;13.75;;;;;;;9.06;71.90;101555.66;5128560;27;20337;-60
2022/11/26 07:57:29;;;;;;;21.20;12.25;;;;;;;9.20;70.49;101567.06;5126016;27;20058;-60
2022/11/26 07:59:57;;;;;;;22.75;14.27;;;;;;;9.40;70.55;101566.22;5126874;27;20510;-60
2022/11/26 08:02:25;;;;;;;23.63;12.13;;;;;;;9.90;69.78;101574.75;5127468;27;20407;-61
2022/11/26 08:04:59;;;;;;;21.75;13.65;;;;;;;10.77;67.50;101574.34;5125738;27;20436;-60
2022/11/26 08:07:30;;;;;;;20.35;12.57;;;;;;;11.92;64.82;101580.34;5125982;27;20139;-60
2022/11/26 08:09:58;;;;;;;26.00;14.35;;;;;;;13.07;62.58;101587.75;5126300;27;20055;-60
2022/11/26 08:12:26;;;;;;;23.85;13.73;;;;;;;14.27;57.64;101583.34;5141166;27;20057;-60
2022/11/26 08:14:53;;;;;;;20.65;13.07;;;;;;;15.08;55.76;101581.88;5124865;27;20062;-60
2022/11/26 08:17:24;;;;;;;21.73;13.20;;;;;;;13.63;57.45;101577.59;5131627;27;20051;-60
2022/11/26 08:19:54;;;;;;;19.45;13.52;;;;;;;14.45;56.28;101578.78;5127044;27;20411;-62
2022/11/26 08:22:22;;;;;;;18.92;13.32;;;;;;;15.55;53.07;101573.91;5121061;27;20178;-61
2022/11/26 08:24:50;;;;;;;20.52;12.80;;;;;;;16.52;50.17;101579.63;5129090;27;20031;-60
2022/11/26 08:27:17;;;;;;;19.75;11.75;;;;;;;17.79;47.48;101575.78;5128248;27;20058;-60
2022/11/26 08:29:47;;;;;;;19.33;11.98;;;;;;;18.34;45.99;101577.72;5137262;27;20077;-60
2022/11/26 08:32:15;;;;;;;17.00;10.82;;;;;;;18.27;45.84;101580.25;5131015;27;20051;-60
2022/11/26 08:34:42;;;;;;;16.50;11.18;;;;;;;17.96;45.98;101580.56;5143453;27;20114;-60
2022/11/26 08:37:19;;;;;;;14.93;11.70;;;;;;;18.36;44.75;101574.56;5154637;27;20061;-60
2022/11/26 08:39:47;;;;;;;18.23;10.57;;;;;;;19.13;42.91;101580.00;5142710;27;20054;-59
2022/11/26 08:42:17;;;;;;;16.00;11.38;;;;;;;20.21;41.41;101574.16;5133637;27;20062;-60
2022/11/26 08:44:44;;;;;;;15.23;10.68;;;;;;;20.77;39.92;101575.56;5133885;27;20047;-60
2022/11/26 08:47:12;;;;;;;16.33;11.63;;;;;;;20.87;39.89;101575.03;5134743;27;20054;-60
2022/11/26 08:49:39;;;;;;;17.60;11.73;;;;;;;20.65;39.94;101567.91;5142701;27;20047;-60
2022/11/26 08:52:07;;;;;;;14.60;9.77;;;;;;;21.23;38.61;101576.09;5122367;27;20050;-60
2022/11/26 08:54:36;;;;;;;14.13;8.98;;;;;;;21.55;37.90;101570.56;5121895;27;20058;-60
2022/11/26 08:57:04;;;;;;;15.40;9.18;;;;;;;21.89;37.52;101564.19;5131732;27;20377;-60
2022/11/26 08:59:32;;;;;;;16.65;9.68;;;;;;;22.68;35.90;101568.97;5123574;27;20047;-60
2022/11/26 09:01:59;;;;;;;12.77;8.77;;;;;;;23.65;34.81;101561.66;5125981;27;20092;-61
2022/11/26 09:04:27;;;;;;;12.27;8.15;;;;;;;24.22;33.81;101562.69;5137721;27;20054;-61
2022/11/26 09:06:54;;;;;;;12.88;8.48;;;;;;;24.64;32.95;101558.06;5133046;27;20074;-61
2022/11/26 09:09:22;;;;;;;14.70;8.40;;;;;;;24.92;32.28;101575.56;5133700;27;20062;-61
2022/11/26 09:11:53;;;;;;;12.35;7.25;;;;;;;25.07;32.39;101567.19;5133093;27;20055;-61
2022/11/26 09:14:23;;;;;;;15.77;8.80;;;;;;;24.99;31.98;101572.00;5133175;27;20046;-61
2022/11/26 09:16:55;;;;;;;13.85;8.25;;;;;;;25.21;32.01;101563.72;5132571;27;20051;-61
2022/11/26 09:19:23;;;;;;;12.93;7.55;;;;;;;25.37;31.04;101574.94;5154052;27;20500;-61
2022/11/26 09:21:51;;;;;;;11.88;7.13;;;;;;;25.32;31.34;101576.06;5138650;27;20511;-61
2022/11/26 09:24:20;;;;;;;12.32;7.47;;;;;;;24.26;32.34;101582.69;5133875;27;20513;-61
2022/11/26 09:26:48;;;;;;;12.07;8.00;;;;;;;24.36;31.96;101592.59;5133085;27;20051;-61
2022/11/26 09:29:19;;;;;;;13.57;6.80;;;;;;;25.31;31.13;101591.56;5133247;27;20410;-61
2022/11/26 09:31:48;;;;;;;11.40;7.10;;;;;;;24.85;30.87;101586.03;5141355;27;20046;-61
2022/11/26 09:34:19;;;;;;;15.30;8.60;;;;;;;23.49;32.74;101598.72;5154067;27;20046;-61
2022/11/26 09:36:46;;;;;;;10.98;7.10;;;;;;;23.17;33.92;101609.44;5153137;27;20055;-61
2022/11/26 09:39:14;;;;;;;14.80;7.60;;;;;;;24.19;32.48;101608.16;5152951;27;20073;-61
2022/11/26 09:41:47;;;;;;;13.50;7.85;;;;;;;24.25;32.43;101609.50;5153529;27;20441;-60
2022/11/26 09:44:24;;;;;;;14.82;7.22;;;;;;;23.42;33.36;101605.09;5153113;27;20051;-61
2022/11/26 09:47:02;;;;;;;14.75;6.90;;;;;;;22.29;34.62;101617.13;5151616;27;20043;-61
2022/11/26 09:49:35;;;;;;;10.40;6.95;;;;;;;21.04;37.28;101617.28;5153594;27;20061;-61
2022/11/26 09:52:05;;;;;;;11.85;6.80;;;;;;;19.95;39.02;101618.91;5153128;27;20061;-61
2022/11/26 09:54:33;;;;;;;16.48;7.93;;;;;;;19.89;39.54;101618.34;5130382;27;20150;-61
2022/11/26 09:57:12;;;;;;;14.00;7.97;;;;;;;18.94;40.58;101625.66;5132743;28;20054;-61
2022/11/26 09:59:44;;;;;;;11.20;6.93;;;;;;;18.23;42.03;101627.22;5134407;27;20501;-62
2022/11/26 10:02:12;;;;;;;13.23;7.30;;;;;;;17.71;44.00;101628.16;5131795;27;20043;-60
2022/11/26 10:04:41;;;;;;;14.85;6.60;;;;;;;17.61;44.29;101631.34;5146945;27;20042;-61
2022/11/26 10:07:30;;;;;;;12.10;6.50;;;;;;;17.46;43.99;101624.25;5157600;27;20051;-61
2022/11/26 10:10:07;;;;;;;10.45;6.50;;;;;;;18.00;43.67;101621.00;5158160;27;20459;-60
2022/11/26 10:12:49;;;;;;;13.05;6.05;;;;;;;19.65;40.73;101619.91;5157189;27;20047;-60
2022/11/26 10:15:26;;;;;;;12.65;5.80;;;;;;;20.58;39.88;101610.97;5153739;27;20062;-60
2022/11/26 10:18:02;;;;;;;13.05;5.97;;;;;;;21.02;38.29;101610.28;5154237;27;20042;-60
2022/11/26 10:20:50;;;;;;;9.77;4.88;;;;;;;21.68;36.92;101612.66;5157477;27;20062;-61
2022/11/26 10:23:24;;;;;;;12.32;5.28;;;;;;;21.14;37.69;101607.44;5142391;27;20058;-61
2022/11/26 10:25:54;;;;;;;10.45;4.78;;;;;;;21.24;37.48;101611.78;5116743;27;20047;-61
2022/11/26 10:28:30;;;;;;;10.52;5.53;;;;;;;21.90;35.67;101604.72;5133735;27;20055;-61
2022/11/26 10:31:03;;;;;;;9.93;4.50;;;;;;;21.65;36.70;101604.06;5137513;27;20070;-61
2022/11/26 10:33:36;;;;;;;9.23;5.03;;;;;;;21.79;36.25;101610.09;5125304;27;20047;-61
2022/11/26 10:36:09;;;;;;;8.88;4.68;;;;;;;21.47;36.80;101617.72;5123952;27;20047;-61
2022/11/26 10:38:37;;;;;;;10.50;4.85;;;;;;;21.07;37.08;101605.22;5133405;27;20492;-61
2022/11/26 10:41:04;;;;;;;11.43;4.90;;;;;;;21.28;37.07;101601.38;5131385;27;20064;-61
2022/11/26 10:43:32;;;;;;;10.77;4.47;;;;;;;20.97;37.48;101602.88;5125709;27;20043;-62
2022/11/26 10:46:01;;;;;;;9.15;4.53;;;;;;;21.49;36.94;101601.19;5121885;27;20051;-61
2022/11/26 10:48:30;;;;;;;9.35;3.83;;;;;;;21.27;37.17;101605.38;5124786;27;20392;-62
2022/11/26 10:51:02;;;;;;;9.27;4.32;;;;;;;21.35;37.16;101606.41;5118318;27;20046;-62
2022/11/26 10:53:32;;;;;;;10.88;4.03;;;;;;;21.23;37.01;101604.44;5122096;27;20062;-62
2022/11/26 10:56:02;;;;;;;9.48;3.92;;;;;;;21.05;36.54;101601.91;5133275;27;20054;-62
2022/11/26 10:58:33;;;;;;;9.48;3.78;;;;;;;20.83;37.79;101602.44;5156601;27;20062;-61
2022/11/26 11:01:04;;;;;;;11.65;4.30;;;;;;;20.56;38.10;101595.50;5156680;27;20058;-61
2022/11/26 11:03:34;;;;;;;6.88;3.17;;;;;;;20.32;39.13;101607.66;5148185;27;20066;-61
2022/11/26 11:06:15;;;;;;;11.98;3.65;;;;;;;19.24;40.42;101606.66;5135887;27;20059;-60
2022/11/26 11:08:42;;;;;;;9.25;4.35;;;;;;;19.25;40.39;101613.94;5138253;27;20047;-60
2022/11/26 11:11:20;;;;;;;7.47;3.80;;;;;;;18.90;40.88;101599.28;5151638;27;20407;-61
2022/11/26 11:13:48;;;;;;;9.95;3.85;;;;;;;19.28;40.14;101599.16;5132431;27;20444;-62
2022/11/26 11:16:24;;;;;;;9.85;4.25;;;;;;;19.66;39.81;101601.75;5119230;27;20048;-61
2022/11/26 11:18:55;;;;;;;7.90;4.03;;;;;;;19.42;40.26;101596.84;5125728;27;20058;-61
2022/11/26 11:21:28;;;;;;;8.27;3.88;;;;;;;19.73;39.40;101589.91;5115391;28;20051;-61
2022/11/26 11:24:08;;;;;;;8.75;3.90;;;;;;;19.66;40.07;101595.28;5142593;27;20482;-61
2022/11/26 11:26:42;;;;;;;7.75;5.43;;;;;;;19.82;40.02;101596.28;5156155;27;20050;-61
2022/11/26 11:29:26;;;;;;;8.38;6.00;;;;;;;20.64;37.75;101594.56;5155833;27;20061;-61
2022/11/26 11:31:56;;;;;;;11.23;5.63;;;;;;;21.17;37.34;101586.06;5156127;27;20050;-61
2022/11/26 11:34:29;;;;;;;11.77;7.68;;;;;;;21.30;36.25;101590.50;5156323;27;20053;-61
2022/11/26 11:37:02;;;;;;;11.63;4.53;;;;;;;20.42;38.06;101582.53;5154214;27;20051;-61
2022/11/26 11:39:30;;;;;;;10.18;8.10;;;;;;;20.60;37.73;101588.81;5156305;27;20061;-61
2022/11/26 11:41:59;;;;;;;9.50;8.23;;;;;;;20.78;37.73;101585.69;5155346;27;20051;-61
2022/11/26 11:44:37;;;;;;;18.95;17.13;;;;;;;19.91;38.44;101584.03;5156407;27;20429;-61
2022/11/26 11:47:34;;;;;;;16.60;15.27;;;;;;;20.64;37.09;101572.75;5155827;27;20059;-61
2022/11/26 11:50:18;;;;;;;19.05;17.73;;;;;;;21.79;36.26;101576.06;5097273;28;20063;-61
2022/11/26 11:52:59;;;;;;;8.90;8.00;;;;;;;21.74;36.01;101576.34;5137192;27;20057;-61
2022/11/26 11:55:44;;;;;;;10.13;7.60;;;;;;;21.47;36.34;101573.19;5156011;27;20051;-61
2022/11/26 11:58:46;;;;;;;11.80;8.02;;;;;;;21.83;35.57;101568.47;5155652;27;20051;-61
2022/11/26 12:01:27;;;;;;;14.13;13.02;;;;;;;23.00;33.70;101566.03;5155462;27;20449;-61
2022/11/26 12:04:19;;;;;;;11.05;9.95;;;;;;;23.69;33.01;101579.63;5155364;27;20043;-61
2022/11/26 12:07:05;;;;;;;8.35;5.10;;;;;;;23.36;33.57;101566.78;5151256;27;20047;-61
2022/11/26 12:09:40;;;;;;;9.18;4.38;;;;;;;22.78;34.57;101570.41;5155456;27;20057;-62
2022/11/26 12:12:17;;;;;;;9.27;3.83;;;;;;;22.50;35.49;101571.41;5155182;27;20057;-61
2022/11/26 12:14:50;;;;;;;10.77;4.15;;;;;;;21.82;36.20;101586.72;5155264;27;20054;-61
2022/11/26 12:17:35;;;;;;;9.55;4.18;;;;;;;21.21;37.51;101590.66;5155290;27;20070;-61
2022/11/26 12:20:17;;;;;;;11.57;4.53;;;;;;;20.93;37.49;101584.94;5155297;27;20050;-61
2022/11/26 12:22:51;;;;;;;11.27;3.70;;;;;;;20.48;39.13;101585.94;5146175;27;20047;-61
2022/11/26 12:25:29;;;;;;;13.18;3.90;;;;;;;20.05;39.34;101579.72;5155203;27;20062;-61
2022/11/26 12:28:03;;;;;;;12.27;3.97;;;;;;;19.51;39.98;101581.78;5155191;27;20051;-61
2022/11/26 12:30:41;;;;;;;12.93;3.75;;;;;;;18.89;41.44;101570.22;5155223;27;20061;-61